createdAt,value
2023-05-06T00:00:25.542Z,14.60
2023-05-06T00:02:52.807Z,14.85
2023-05-06T00:05:20.080Z,14.98
2023-05-06T00:07:47.319Z,14.81
2023-05-06T00:10:14.635Z,14.85
2023-05-06T00:12:41.781Z,14.95
2023-05-06T00:15:09.537Z,14.74
2023-05-06T00:17:37.016Z,14.57
2023-05-06T00:20:04.646Z,14.53
2023-05-06T00:22:32.122Z,14.57
2023-05-06T00:24:59.319Z,14.69
2023-05-06T00:27:26.455Z,14.74
2023-05-06T00:29:53.723Z,14.56
2023-05-06T00:32:20.851Z,14.50
2023-05-06T00:34:48.339Z,14.30
2023-05-06T00:37:15.549Z,14.47
2023-05-06T00:39:42.757Z,14.40
2023-05-06T00:42:09.940Z,14.37
2023-05-06T00:44:37.174Z,14.19
2023-05-06T00:47:04.826Z,14.12
2023-05-06T00:49:32.293Z,14.26
2023-05-06T00:52:01.249Z,14.24
2023-05-06T00:54:29.792Z,14.15
2023-05-06T00:56:58.000Z,13.85
2023-05-06T00:59:25.243Z,13.63
2023-05-06T01:01:53.947Z,13.51
2023-05-06T01:04:24.103Z,13.74
2023-05-06T01:07:27.661Z,13.95
2023-05-06T01:10:19.985Z,14.04
2023-05-06T01:13:08.285Z,14.04
2023-05-06T01:15:44.300Z,13.94
2023-05-06T01:18:17.061Z,14.07
2023-05-06T01:20:48.087Z,14.08
2023-05-06T01:23:15.637Z,13.98
2023-05-06T01:25:42.991Z,14.01
2023-05-06T01:28:11.784Z,14.09
2023-05-06T01:31:09.406Z,13.98
2023-05-06T01:33:41.389Z,14.00
2023-05-06T01:36:11.803Z,13.97
2023-05-06T01:39:02.297Z,13.68
2023-05-06T01:41:33.350Z,13.59
2023-05-06T01:44:01.566Z,13.50
2023-05-06T01:46:30.221Z,13.61
2023-05-06T01:49:01.262Z,13.67
2023-05-06T01:51:28.414Z,13.75
2023-05-06T01:53:55.664Z,13.71
2023-05-06T01:56:24.082Z,13.66
2023-05-06T01:58:51.347Z,13.89
2023-05-06T02:01:18.817Z,13.84
2023-05-06T02:03:46.162Z,13.67
2023-05-06T02:06:13.511Z,13.60
2023-05-06T02:08:41.198Z,13.50
2023-05-06T02:11:11.795Z,13.49
2023-05-06T02:13:39.179Z,13.56
2023-05-06T02:16:09.010Z,13.74
2023-05-06T02:18:37.467Z,13.71
2023-05-06T02:21:04.835Z,13.64
2023-05-06T02:23:31.998Z,13.71
2023-05-06T02:25:59.242Z,13.71
2023-05-06T02:28:26.648Z,13.64
2023-05-06T02:30:57.801Z,13.59
2023-05-06T02:33:25.106Z,13.26
2023-05-06T02:35:52.358Z,13.09
2023-05-06T02:38:19.781Z,13.02
2023-05-06T02:40:46.978Z,13.11
2023-05-06T02:43:14.212Z,13.23
2023-05-06T02:45:41.468Z,13.26
2023-05-06T02:48:08.708Z,13.27
2023-05-06T02:50:37.207Z,13.16
2023-05-06T02:53:04.390Z,13.26
2023-05-06T02:55:31.778Z,13.43
2023-05-06T02:57:58.956Z,13.36
2023-05-06T03:00:26.122Z,13.30
2023-05-06T03:02:53.546Z,13.43
2023-05-06T03:05:21.178Z,13.13
2023-05-06T03:07:48.652Z,13.24
2023-05-06T03:10:15.958Z,13.16
2023-05-06T03:12:43.470Z,13.13
2023-05-06T03:15:11.681Z,13.16
2023-05-06T03:17:39.240Z,13.19
2023-05-06T03:20:08.776Z,12.99
2023-05-06T03:22:38.507Z,13.09
2023-05-06T03:25:06.935Z,13.13
2023-05-06T03:27:36.188Z,13.20
2023-05-06T03:30:11.154Z,13.12
2023-05-06T03:32:39.736Z,13.11
2023-05-06T03:35:11.637Z,13.15
2023-05-06T03:37:40.751Z,13.15
2023-05-06T03:40:08.647Z,13.18
2023-05-06T03:42:35.872Z,13.18
2023-05-06T03:45:04.066Z,13.15
2023-05-06T03:47:33.352Z,13.13
2023-05-06T03:50:02.089Z,13.30
2023-05-06T03:52:31.336Z,13.35
2023-05-06T03:55:00.752Z,13.33
2023-05-06T03:57:29.874Z,13.15
2023-05-06T03:59:57.530Z,13.29
2023-05-06T04:02:27.110Z,13.32
2023-05-06T04:04:54.777Z,13.54
2023-05-06T04:07:22.059Z,13.67
2023-05-06T04:09:51.241Z,13.53
2023-05-06T04:12:19.013Z,13.64
2023-05-06T04:14:48.223Z,13.54
2023-05-06T04:17:15.733Z,13.56
2023-05-06T04:19:43.980Z,13.89
2023-05-06T04:22:11.154Z,13.88
2023-05-06T04:24:38.667Z,13.98
2023-05-06T04:27:06.450Z,14.02
2023-05-06T04:29:34.071Z,14.08
2023-05-06T04:32:04.863Z,14.25
2023-05-06T04:34:36.216Z,14.26
2023-05-06T04:37:05.016Z,14.28
2023-05-06T04:39:58.775Z,14.22
2023-05-06T04:42:26.263Z,14.45
2023-05-06T04:45:05.618Z,14.74
2023-05-06T04:47:34.495Z,14.93
2023-05-06T04:50:04.493Z,15.10
2023-05-06T04:52:32.286Z,15.25
2023-05-06T04:54:59.729Z,15.36
2023-05-06T04:57:26.938Z,15.48
2023-05-06T04:59:55.666Z,15.65
2023-05-06T05:02:23.004Z,15.70
2023-05-06T05:04:50.600Z,16.40
2023-05-06T05:07:18.207Z,17.06
2023-05-06T05:09:45.835Z,17.20
2023-05-06T05:12:13.212Z,17.89
2023-05-06T05:14:43.873Z,18.84
2023-05-06T05:17:12.852Z,19.53
2023-05-06T05:19:41.498Z,20.36
2023-05-06T05:22:09.252Z,20.84
2023-05-06T05:24:36.423Z,21.10
2023-05-06T05:27:03.672Z,20.84
2023-05-06T05:29:31.066Z,20.79
2023-05-06T05:32:00.578Z,20.95
2023-05-06T05:34:27.824Z,21.32
2023-05-06T05:36:56.835Z,21.93
2023-05-06T05:39:24.087Z,22.68
2023-05-06T05:41:51.247Z,23.17
2023-05-06T05:44:18.567Z,23.57
2023-05-06T05:46:46.036Z,24.13
2023-05-06T05:49:16.438Z,24.63
2023-05-06T05:51:43.674Z,24.61
2023-05-06T05:54:14.361Z,24.33
2023-05-06T05:56:42.511Z,24.43
2023-05-06T05:59:09.726Z,24.22
2023-05-06T06:01:37.021Z,24.59
2023-05-06T06:04:05.173Z,24.70
2023-05-06T06:06:32.767Z,24.59
2023-05-06T06:09:00.166Z,24.09
2023-05-06T06:11:29.253Z,23.79
2023-05-06T06:13:57.412Z,23.90
2023-05-06T06:16:24.799Z,24.27
2023-05-06T06:18:52.023Z,23.96
2023-05-06T06:21:19.552Z,24.68
2023-05-06T06:23:47.171Z,25.14
2023-05-06T06:26:14.519Z,25.32
2023-05-06T06:28:42.071Z,25.54
2023-05-06T06:31:09.211Z,26.29
2023-05-06T06:33:36.639Z,26.45
2023-05-06T06:36:04.000Z,26.20
2023-05-06T06:38:31.321Z,26.86
2023-05-06T06:40:58.492Z,27.01
2023-05-06T06:43:25.663Z,27.27
2023-05-06T06:45:59.562Z,27.62
2023-05-06T06:48:26.934Z,27.83
2023-05-06T06:50:54.138Z,27.83
2023-05-06T06:53:21.467Z,26.97
2023-05-06T06:55:48.693Z,27.78
2023-05-06T06:58:15.874Z,27.47
2023-05-06T07:00:43.928Z,27.72
2023-05-06T07:03:11.262Z,27.88
2023-05-06T07:05:38.467Z,28.30
2023-05-06T07:08:05.696Z,28.43
2023-05-06T07:10:33.035Z,28.71
2023-05-06T07:13:00.316Z,28.27
2023-05-06T07:15:27.481Z,28.28
2023-05-06T07:17:54.723Z,28.61
2023-05-06T07:20:22.793Z,28.52
2023-05-06T07:22:50.038Z,28.61
2023-05-06T07:25:17.239Z,28.95
2023-05-06T07:27:44.584Z,28.98
2023-05-06T07:30:12.560Z,28.52
2023-05-06T07:32:41.407Z,28.98
2023-05-06T07:35:09.320Z,29.36
2023-05-06T07:37:37.270Z,28.99
2023-05-06T07:40:04.907Z,29.40
2023-05-06T07:42:32.865Z,29.98
2023-05-06T07:45:00.131Z,30.29
2023-05-06T07:47:30.100Z,30.19
2023-05-06T07:49:57.970Z,30.05
2023-05-06T07:52:25.263Z,30.13
2023-05-06T07:54:53.311Z,30.42
2023-05-06T07:57:20.507Z,30.52
2023-05-06T07:59:49.364Z,30.97
2023-05-06T08:02:17.075Z,30.77
2023-05-06T08:04:45.114Z,31.50
2023-05-06T08:07:12.359Z,31.10
2023-05-06T08:09:39.686Z,30.83
2023-05-06T08:12:07.343Z,31.15
2023-05-06T08:14:35.350Z,30.83
2023-05-06T08:17:02.880Z,31.39
2023-05-06T08:19:30.111Z,31.77
2023-05-06T08:21:57.341Z,31.21
2023-05-06T08:24:24.517Z,30.99
2023-05-06T08:26:51.854Z,31.21
2023-05-06T08:29:19.259Z,32.00
2023-05-06T08:31:47.104Z,32.00
2023-05-06T08:34:14.583Z,31.53
2023-05-06T08:36:41.837Z,31.50
2023-05-06T08:39:09.013Z,31.35
2023-05-06T08:41:38.386Z,32.09
2023-05-06T08:44:05.745Z,31.84
2023-05-06T08:46:33.213Z,32.03
2023-05-06T08:49:00.616Z,31.94
2023-05-06T08:51:31.829Z,32.19
2023-05-06T08:54:05.056Z,31.93
2023-05-06T08:56:33.774Z,32.10
2023-05-06T08:59:01.387Z,32.06
2023-05-06T09:01:29.147Z,31.96
2023-05-06T09:03:58.153Z,31.15
2023-05-06T09:06:25.554Z,31.39
2023-05-06T09:08:52.901Z,31.42
2023-05-06T09:11:30.066Z,30.77
2023-05-06T09:14:11.150Z,30.08
2023-05-06T09:16:39.929Z,30.86
2023-05-06T09:19:07.258Z,30.02
2023-05-06T09:21:36.403Z,29.30
2023-05-06T09:24:06.011Z,29.44
2023-05-06T09:26:38.688Z,29.47
2023-05-06T09:29:06.603Z,28.55
2023-05-06T09:31:39.856Z,28.18
2023-05-06T09:34:07.278Z,28.16
2023-05-06T09:36:34.439Z,28.02
2023-05-06T09:39:01.692Z,28.10
2023-05-06T09:41:29.185Z,28.12
2023-05-06T09:43:57.827Z,28.25
2023-05-06T09:46:26.875Z,27.90
2023-05-06T09:48:56.674Z,27.38
2023-05-06T09:51:24.018Z,26.99
2023-05-06T09:53:52.564Z,26.99
2023-05-06T09:56:21.547Z,26.72
2023-05-06T09:58:51.239Z,26.97
2023-05-06T10:01:32.717Z,26.66
2023-05-06T10:04:09.621Z,26.89
2023-05-06T10:06:40.337Z,25.94
2023-05-06T10:09:10.953Z,26.69
2023-05-06T10:11:38.893Z,26.20
2023-05-06T10:14:07.146Z,26.70
2023-05-06T10:16:36.180Z,26.64
2023-05-06T10:19:06.724Z,26.24
2023-05-06T10:21:38.071Z,26.13
2023-05-06T10:24:09.038Z,26.09
2023-05-06T10:26:37.760Z,25.74
2023-05-06T10:29:11.122Z,25.36
2023-05-06T10:31:50.650Z,25.19
2023-05-06T10:34:21.169Z,24.85
2023-05-06T10:36:53.102Z,25.18
2023-05-06T10:39:20.950Z,24.92
2023-05-06T10:41:49.043Z,24.91
2023-05-06T10:44:16.476Z,24.96
2023-05-06T10:47:12.853Z,25.23
2023-05-06T10:50:21.477Z,25.29
2023-05-06T10:52:51.759Z,25.54
2023-05-06T10:55:36.379Z,25.69
2023-05-06T10:58:14.709Z,25.80
2023-05-06T11:00:42.208Z,25.98
2023-05-06T11:03:18.823Z,25.95
2023-05-06T11:05:48.642Z,26.05
2023-05-06T11:08:22.133Z,25.80
2023-05-06T11:10:49.379Z,25.57
2023-05-06T11:13:28.293Z,25.78
2023-05-06T11:15:58.979Z,25.71
2023-05-06T11:18:29.424Z,25.84
2023-05-06T11:21:05.208Z,26.07
2023-05-06T11:23:52.133Z,25.87
2023-05-06T11:26:19.564Z,26.21
2023-05-06T11:28:49.726Z,26.51
2023-05-06T11:31:19.257Z,26.17
2023-05-06T11:33:52.704Z,25.80
2023-05-06T11:36:21.192Z,25.51
2023-05-06T11:38:53.063Z,25.50
2023-05-06T11:41:22.871Z,25.59
2023-05-06T11:43:52.054Z,25.22
2023-05-06T11:46:20.537Z,25.66
2023-05-06T11:48:48.108Z,26.38
2023-05-06T11:51:16.283Z,26.69
2023-05-06T11:53:43.471Z,26.60
2023-05-06T11:56:10.913Z,26.69
2023-05-06T11:58:38.071Z,26.79
2023-05-06T12:01:05.315Z,26.80
2023-05-06T12:03:34.120Z,26.83
2023-05-06T12:06:01.448Z,26.86
2023-05-06T12:08:31.974Z,26.79
2023-05-06T12:11:01.808Z,26.86
2023-05-06T12:13:29.786Z,27.03
2023-05-06T12:15:59.643Z,26.89
2023-05-06T12:18:27.806Z,26.80
2023-05-06T12:20:56.242Z,26.66
2023-05-06T12:23:23.506Z,26.39
2023-05-06T12:26:05.857Z,26.48
2023-05-06T12:28:35.707Z,26.55
2023-05-06T12:31:23.005Z,26.63
2023-05-06T12:33:50.733Z,26.64
2023-05-06T12:36:19.219Z,26.66
2023-05-06T12:38:51.544Z,26.55
2023-05-06T12:41:24.856Z,26.62
2023-05-06T12:43:54.981Z,26.55
2023-05-06T12:46:22.343Z,26.45
2023-05-06T12:49:00.251Z,26.26
2023-05-06T12:51:28.818Z,26.20
2023-05-06T12:53:57.012Z,26.36
2023-05-06T12:56:24.338Z,26.41
2023-05-06T12:59:01.707Z,26.32
2023-05-06T13:01:29.394Z,26.07
2023-05-06T13:03:58.075Z,26.29
2023-05-06T13:06:25.333Z,26.46
2023-05-06T13:08:52.515Z,26.43
2023-05-06T13:11:21.464Z,26.36
2023-05-06T13:13:48.548Z,26.07
2023-05-06T13:16:16.060Z,26.13
2023-05-06T13:18:43.265Z,26.26
2023-05-06T13:21:10.569Z,26.36
2023-05-06T13:23:40.111Z,26.51
2023-05-06T13:26:07.274Z,26.39
2023-05-06T13:28:36.604Z,26.32
2023-05-06T13:31:04.228Z,26.42
2023-05-06T13:33:31.770Z,26.43
2023-05-06T13:35:58.941Z,26.41
2023-05-06T13:38:26.257Z,26.31
2023-05-06T13:40:54.328Z,26.32
2023-05-06T13:43:24.691Z,26.32
2023-05-06T13:45:52.482Z,26.09
2023-05-06T13:48:19.679Z,26.32
2023-05-06T13:50:47.597Z,26.35
2023-05-06T13:53:15.275Z,26.38
2023-05-06T13:55:43.724Z,26.42
2023-05-06T13:58:11.405Z,26.32
2023-05-06T14:00:39.078Z,26.36
2023-05-06T14:03:06.278Z,26.45
2023-05-06T14:05:33.543Z,26.41
2023-05-06T14:08:00.781Z,26.39
2023-05-06T14:10:28.132Z,26.32
2023-05-06T14:12:55.391Z,26.31
2023-05-06T14:15:22.670Z,26.07
2023-05-06T14:17:49.937Z,26.02
2023-05-06T14:20:17.241Z,26.11
2023-05-06T14:22:44.405Z,26.09
2023-05-06T14:25:12.352Z,26.13
2023-05-06T14:27:39.780Z,26.00
2023-05-06T14:30:09.000Z,25.94
2023-05-06T14:32:37.392Z,26.02
2023-05-06T14:35:05.219Z,25.83
2023-05-06T14:37:32.421Z,25.93
2023-05-06T14:39:59.642Z,25.94
2023-05-06T14:42:26.817Z,25.95
2023-05-06T14:44:55.044Z,25.80
2023-05-06T14:47:22.591Z,25.78
2023-05-06T14:49:50.363Z,25.57
2023-05-06T14:52:17.592Z,25.54
2023-05-06T14:54:44.858Z,25.66
2023-05-06T14:57:12.063Z,25.54
2023-05-06T14:59:39.299Z,25.56
2023-05-06T15:02:08.643Z,25.53
2023-05-06T15:04:36.577Z,25.42
2023-05-06T15:07:03.844Z,25.46
2023-05-06T15:09:31.229Z,25.49
2023-05-06T15:11:58.496Z,25.11
2023-05-06T15:14:25.988Z,25.28
2023-05-06T15:16:56.844Z,25.36
2023-05-06T15:19:24.769Z,25.36
2023-05-06T15:21:51.932Z,25.32
2023-05-06T15:24:19.105Z,25.23
2023-05-06T15:26:46.399Z,25.28
2023-05-06T15:29:13.669Z,25.29
2023-05-06T15:31:44.502Z,25.28
2023-05-06T15:34:12.052Z,25.36
2023-05-06T15:36:41.355Z,25.35
2023-05-06T15:39:08.839Z,25.35
2023-05-06T15:41:37.801Z,25.38
2023-05-06T15:44:05.983Z,25.39
2023-05-06T15:46:33.816Z,25.36
2023-05-06T15:51:31.611Z,25.20
2023-05-06T15:53:58.756Z,25.25
2023-05-06T15:56:27.090Z,25.28
2023-05-06T15:58:55.328Z,25.32
2023-05-06T16:01:37.673Z,25.30
2023-05-06T16:04:09.853Z,25.20
2023-05-06T16:06:37.110Z,25.16
2023-05-06T16:09:04.318Z,25.14
2023-05-06T16:11:31.661Z,25.09
2023-05-06T16:13:58.822Z,25.01
2023-05-06T16:16:26.031Z,24.94
2023-05-06T16:18:53.218Z,24.95
2023-05-06T16:21:20.728Z,24.94
2023-05-06T16:23:48.876Z,24.90
2023-05-06T16:26:16.769Z,24.80
2023-05-06T16:28:43.949Z,24.73
2023-05-06T16:31:11.199Z,24.61
2023-05-06T16:33:38.427Z,24.64
2023-05-06T16:36:05.929Z,24.52
2023-05-06T16:38:33.141Z,24.44
2023-05-06T16:41:00.314Z,24.37
2023-05-06T16:43:27.855Z,24.26
2023-05-06T16:45:54.986Z,24.22
2023-05-06T16:48:22.291Z,24.12
2023-05-06T16:50:49.453Z,24.08
2023-05-06T16:53:17.482Z,24.04
2023-05-06T16:55:49.216Z,23.95
2023-05-06T16:58:16.377Z,23.94
2023-05-06T17:00:44.056Z,23.81
2023-05-06T17:03:11.670Z,23.72
2023-05-06T17:05:39.186Z,23.69
2023-05-06T17:08:07.116Z,23.67
2023-05-06T17:10:35.009Z,23.62
2023-05-06T17:13:02.430Z,23.48
2023-05-06T17:15:30.288Z,23.46
2023-05-06T17:17:57.714Z,23.46
2023-05-06T17:20:25.263Z,23.43
2023-05-06T17:22:52.508Z,23.30
2023-05-06T17:25:19.879Z,23.23
2023-05-06T17:27:47.767Z,23.19
2023-05-06T17:30:15.175Z,23.10
2023-05-06T17:32:43.076Z,23.03
2023-05-06T17:35:10.519Z,22.96
2023-05-06T17:37:39.068Z,22.79
2023-05-06T17:40:07.712Z,22.69
2023-05-06T17:42:35.337Z,22.52
2023-05-06T17:45:02.564Z,22.30
2023-05-06T17:47:30.306Z,22.16
2023-05-06T17:49:57.733Z,22.07
2023-05-06T17:52:26.484Z,21.85
2023-05-06T17:55:10.784Z,21.70
2023-05-06T17:57:38.966Z,21.56
2023-05-06T18:00:07.512Z,21.49
2023-05-06T18:02:39.092Z,21.50
2023-05-06T18:05:06.750Z,21.35
2023-05-06T18:07:35.770Z,21.32
2023-05-06T18:10:03.282Z,21.14
2023-05-06T18:12:31.086Z,21.11
2023-05-06T18:14:58.505Z,21.02
2023-05-06T18:17:25.701Z,20.74
2023-05-06T18:19:52.955Z,20.67
2023-05-06T18:22:20.099Z,20.76
2023-05-06T18:24:47.266Z,20.64
2023-05-06T18:27:14.398Z,20.67
2023-05-06T18:29:42.299Z,20.62
2023-05-06T18:32:09.524Z,20.55
2023-05-06T18:34:36.822Z,20.59
2023-05-06T18:37:04.690Z,20.47
2023-05-06T18:39:31.868Z,20.33
2023-05-06T18:41:59.227Z,20.21
2023-05-06T18:44:26.974Z,20.30
2023-05-06T18:46:54.075Z,20.26
2023-05-06T18:49:21.278Z,20.32
2023-05-06T18:51:48.627Z,20.30
2023-05-06T18:54:16.309Z,20.14
2023-05-06T18:56:43.638Z,20.12
2023-05-06T18:59:11.640Z,20.08
2023-05-06T19:01:39.342Z,20.11
2023-05-06T19:04:06.566Z,20.09
2023-05-06T19:06:34.731Z,19.94
2023-05-06T19:09:01.876Z,19.73
2023-05-06T19:11:29.039Z,19.94
2023-05-06T19:13:56.283Z,19.68
2023-05-06T19:16:23.422Z,19.34
2023-05-06T19:18:50.665Z,19.20
2023-05-06T19:21:18.749Z,19.18
2023-05-06T19:23:46.071Z,19.23
2023-05-06T19:26:14.130Z,19.20
2023-05-06T19:28:41.426Z,19.24
2023-05-06T19:31:09.821Z,19.32
2023-05-06T19:33:38.060Z,19.26
2023-05-06T19:36:05.762Z,19.13
2023-05-06T19:38:34.401Z,19.16
2023-05-06T19:41:01.947Z,18.92
2023-05-06T19:43:29.182Z,18.60
2023-05-06T19:45:56.635Z,18.57
2023-05-06T19:48:24.125Z,18.71
2023-05-06T19:50:53.870Z,18.72
2023-05-06T19:53:22.868Z,18.78
2023-05-06T19:55:50.113Z,18.81
2023-05-06T19:58:18.842Z,18.74
2023-05-06T20:00:46.023Z,18.72
2023-05-06T20:03:13.598Z,18.78
2023-05-06T20:05:42.038Z,18.81
2023-05-06T20:08:11.155Z,18.78
2023-05-06T20:10:38.462Z,18.78
2023-05-06T20:13:06.930Z,18.68
2023-05-06T20:15:35.365Z,18.50
2023-05-06T20:18:02.916Z,18.40
2023-05-06T20:20:36.232Z,18.34
2023-05-06T20:23:03.681Z,18.22
2023-05-06T20:25:31.194Z,18.25
2023-05-06T20:27:58.930Z,18.32
2023-05-06T20:30:26.628Z,18.32
2023-05-06T20:32:54.015Z,18.07
2023-05-06T20:35:21.213Z,18.06
2023-05-06T20:37:48.361Z,18.10
2023-05-06T20:40:15.839Z,18.13
2023-05-06T20:42:43.129Z,18.12
2023-05-06T20:45:10.507Z,18.16
2023-05-06T20:47:38.084Z,17.96
2023-05-06T20:50:05.704Z,17.95
2023-05-06T20:52:34.071Z,18.02
2023-05-06T20:55:01.737Z,18.13
2023-05-06T20:57:29.085Z,18.12
2023-05-06T20:59:56.298Z,18.10
2023-05-06T21:02:23.695Z,18.22
2023-05-06T21:04:51.074Z,18.19
2023-05-06T21:07:18.216Z,18.13
2023-05-06T21:09:45.713Z,17.99
2023-05-06T21:12:12.897Z,17.83
2023-05-06T21:14:40.018Z,17.77
2023-05-06T21:17:08.415Z,17.89
2023-05-06T21:19:35.706Z,17.92
2023-05-06T21:22:03.002Z,17.86
2023-05-06T21:24:30.837Z,17.77
2023-05-06T21:26:58.096Z,17.83
2023-05-06T21:29:25.489Z,17.82
2023-05-06T21:31:52.783Z,17.81
2023-05-06T21:34:20.360Z,17.78
2023-05-06T21:36:47.487Z,17.90
2023-05-06T21:39:14.682Z,17.95
2023-05-06T21:41:41.863Z,17.95
2023-05-06T21:44:10.096Z,17.99
2023-05-06T21:46:37.944Z,17.99
2023-05-06T21:49:05.426Z,18.00
2023-05-06T21:51:36.471Z,17.98
2023-05-06T21:54:03.820Z,17.98
2023-05-06T21:56:30.981Z,17.92
2023-05-06T21:58:58.252Z,17.88
2023-05-06T22:01:26.331Z,17.88
2023-05-06T22:03:54.256Z,17.88
2023-05-06T22:06:22.899Z,17.82
2023-05-06T22:08:50.118Z,17.85
2023-05-06T22:11:17.314Z,17.77
2023-05-06T22:13:44.482Z,17.75
2023-05-06T22:16:13.141Z,17.71
2023-05-06T22:18:41.587Z,17.64
2023-05-06T22:21:09.805Z,17.57
2023-05-06T22:23:37.749Z,17.51
2023-05-06T22:26:04.972Z,17.47
2023-05-06T22:28:32.237Z,17.37
2023-05-06T22:30:59.420Z,17.42
2023-05-06T22:33:27.066Z,17.45
2023-05-06T22:35:55.471Z,17.38
2023-05-06T22:38:23.563Z,17.30
2023-05-06T22:40:50.772Z,17.32
2023-05-06T22:43:17.949Z,17.17
2023-05-06T22:45:45.103Z,17.10
2023-05-06T22:48:12.453Z,17.16
2023-05-06T22:50:39.646Z,17.16
2023-05-06T22:53:14.985Z,17.00
2023-05-06T22:55:43.736Z,16.83
2023-05-06T22:58:11.135Z,16.66
2023-05-06T23:00:38.475Z,16.73
2023-05-06T23:03:06.056Z,16.90
2023-05-06T23:05:33.384Z,16.61
2023-05-06T23:08:00.574Z,16.58
2023-05-06T23:10:28.053Z,16.72
2023-05-06T23:12:55.343Z,16.69
2023-05-06T23:15:23.117Z,16.45
2023-05-06T23:17:50.487Z,16.08
2023-05-06T23:20:17.895Z,16.01
2023-05-06T23:22:45.013Z,16.07
2023-05-06T23:25:12.773Z,16.18
2023-05-06T23:27:40.952Z,16.25
2023-05-06T23:30:09.287Z,16.21
2023-05-06T23:32:37.657Z,16.13
2023-05-06T23:35:07.553Z,15.97
2023-05-06T23:37:35.057Z,15.97
2023-05-06T23:40:02.573Z,15.94
2023-05-06T23:42:29.715Z,15.74
2023-05-06T23:44:58.279Z,15.82
2023-05-06T23:47:25.607Z,15.83
2023-05-06T23:49:52.818Z,15.71
2023-05-06T23:52:19.958Z,15.66
2023-05-06T23:54:47.256Z,15.71
2023-05-06T23:57:14.430Z,15.76
2023-05-06T23:59:41.674Z,15.69
